Time;durP1;ratioP1;P1;durP2;ratioP2;P2;SDS_P1;SDS_P2;PMS_P1;PMS_P2;Temp;Humidity;BMP_temperature;BMP_pressure;BME280_temperature;BME280_humidity;BME280_pressure;Samples;Min_cycle;Max_cycle;Signal;HPM_P1;HPM_P2
2021/05/06 00:33:35;;;;;;;11.00;6.47;;;;;;;6.59;66.66;99568.34;5133494;27;20399;-61
2021/05/06 00:36:02;;;;;;;10.95;7.32;;;;;;;6.68;66.63;99565.69;5134433;27;20058;-61
2021/05/06 00:38:31;;;;;;;10.98;6.75;;;;;;;6.75;66.40;99562.50;5123793;27;20050;-62
2021/05/06 00:41:12;;;;;;;9.70;7.10;;;;;;;6.76;66.53;99567.72;5121787;27;20051;-61
2021/05/06 00:44:04;;;;;;;8.40;6.15;;;;;;;6.85;65.66;99563.09;5133715;27;20047;-62
2021/05/06 00:54:54;;;;;;;10.52;7.00;;;;;;;6.90;64.52;99537.22;5136138;27;20514;-62
2021/05/06 00:57:27;;;;;;;11.57;8.00;;;;;;;6.91;64.62;99545.22;5133742;27;20046;-62
2021/05/06 01:00:09;;;;;;;10.50;7.15;;;;;;;6.93;64.79;99547.69;5121595;27;20052;-62
2021/05/06 01:02:50;;;;;;;10.98;7.90;;;;;;;6.94;65.35;99546.56;5127426;27;20399;-62
2021/05/06 01:05:22;;;;;;;11.55;7.93;;;;;;;6.99;64.51;99549.22;5133835;27;20078;-62
2021/05/06 01:07:59;;;;;;;10.55;7.82;;;;;;;7.05;64.37;99538.81;5133679;27;20483;-62
2021/05/06 01:10:36;;;;;;;8.32;7.05;;;;;;;7.07;64.30;99539.31;5133702;27;20505;-62
2021/05/06 01:13:03;;;;;;;11.18;7.57;;;;;;;7.06;64.61;99532.16;5133703;27;20047;-62
2021/05/06 01:15:34;;;;;;;10.88;8.30;;;;;;;7.09;64.54;99534.28;5132705;27;20518;-62
2021/05/06 01:18:04;;;;;;;9.45;7.78;;;;;;;7.14;64.45;99525.88;5133456;27;20046;-62
2021/05/06 01:20:32;;;;;;;10.38;8.18;;;;;;;7.16;64.58;99528.31;5133413;27;20419;-62
2021/05/06 01:23:00;;;;;;;10.40;7.82;;;;;;;7.19;64.49;99522.16;5133756;27;20051;-62
2021/05/06 01:25:27;;;;;;;9.23;8.20;;;;;;;7.23;63.16;99510.13;5131771;27;20443;-62
2021/05/06 01:27:59;;;;;;;9.32;8.25;;;;;;;7.18;63.23;99492.81;5133641;27;20411;-62
2021/05/06 01:30:33;;;;;;;10.82;8.73;;;;;;;7.17;63.44;99508.59;5133759;27;20062;-61
2021/05/06 01:33:07;;;;;;;11.48;9.00;;;;;;;7.12;63.11;99494.91;5133370;27;20121;-62
2021/05/06 01:35:38;;;;;;;11.93;9.40;;;;;;;7.05;63.09;99506.41;5132872;27;20039;-62
2021/05/06 01:43:40;;;;;;;10.43;9.38;;;;;;;6.77;63.12;99496.59;5073994;28;20109;-61
2021/05/06 02:00:07;;;;;;;10.70;9.60;;;;;;;6.03;64.99;99465.31;5121120;27;20384;-61
2021/05/06 02:02:34;;;;;;;10.98;9.82;;;;;;;5.95;64.94;99471.56;5112398;28;20048;-61
2021/05/06 02:05:04;;;;;;;12.52;9.57;;;;;;;5.83;65.30;99460.97;5112401;28;20052;-61
2021/05/06 02:07:31;;;;;;;11.15;9.70;;;;;;;5.75;66.01;99455.34;5122025;28;20058;-61
2021/05/06 02:09:59;;;;;;;11.10;8.85;;;;;;;5.75;66.00;99452.59;5133050;28;20058;-61
2021/05/06 02:12:26;;;;;;;9.80;8.35;;;;;;;5.73;66.41;99450.13;5133183;28;20047;-61
2021/05/06 02:14:56;;;;;;;9.25;8.15;;;;;;;5.65;66.45;99448.94;5133066;28;20047;-61
2021/05/06 02:17:22;;;;;;;;;;;;;;;5.67;66.42;99460.50;5130362;28;20408;-61
2021/05/06 02:19:49;;;;;;;10.63;7.47;;;;;;;5.63;66.54;99445.66;5132868;28;20376;-61
2021/05/06 02:22:18;;;;;;;10.88;7.20;;;;;;;5.62;66.75;99449.53;5121251;28;20044;-61
2021/05/06 02:24:47;;;;;;;8.27;7.38;;;;;;;5.61;66.78;99444.31;5132414;28;20428;-61
2021/05/06 02:27:15;;;;;;;11.13;7.38;;;;;;;5.66;66.71;99442.25;5132687;27;20055;-61
2021/05/06 02:29:42;;;;;;;10.50;7.28;;;;;;;5.64;66.90;99441.75;5136287;27;20051;-61
2021/05/06 02:32:09;;;;;;;10.48;7.15;;;;;;;5.62;67.05;99440.44;5136469;27;20051;-61
2021/05/06 02:34:36;;;;;;;8.00;6.25;;;;;;;5.69;66.62;99436.13;5137043;27;20051;-61
2021/05/06 02:37:04;;;;;;;8.27;6.30;;;;;;;5.70;66.42;99440.53;5137201;27;20480;-60
2021/05/06 02:39:30;;;;;;;8.95;6.90;;;;;;;5.66;66.87;99433.97;5124581;27;20067;-60
2021/05/06 02:41:57;;;;;;;10.13;7.15;;;;;;;5.69;66.81;99438.06;5115581;28;20058;-60
2021/05/06 02:44:25;;;;;;;9.05;6.93;;;;;;;5.70;67.01;99439.72;5135973;27;20047;-60
2021/05/06 02:46:52;;;;;;;9.30;6.75;;;;;;;5.69;66.67;99430.63;5136380;27;20051;-61
2021/05/06 02:49:20;;;;;;;7.93;6.25;;;;;;;5.79;66.74;99432.31;5137206;27;20403;-61
2021/05/06 02:51:50;;;;;;;8.65;6.80;;;;;;;5.83;66.45;99427.81;5136065;27;20046;-62
2021/05/06 02:54:19;;;;;;;10.32;6.40;;;;;;;5.90;66.53;99430.19;5135769;27;20047;-61
2021/05/06 02:56:52;;;;;;;9.20;5.88;;;;;;;6.00;66.16;99421.69;5136986;27;20051;-62
2021/05/06 03:04:47;;;;;;;8.30;5.03;;;;;;;6.17;65.55;99420.22;5118328;28;20058;-61
2021/05/06 03:07:18;;;;;;;7.63;5.75;;;;;;;6.21;65.58;99415.72;5115635;28;20063;-62
2021/05/06 03:09:56;;;;;;;7.03;5.65;;;;;;;6.22;65.58;99418.16;5133872;27;20094;-61
2021/05/06 03:12:35;;;;;;;8.68;5.47;;;;;;;6.28;65.49;99416.13;5135352;27;20054;-62
2021/05/06 03:20:57;;;;;;;6.43;4.90;;;;;;;6.39;65.31;99411.97;5120742;27;20412;-62
2021/05/06 03:23:40;;;;;;;7.32;4.95;;;;;;;6.47;66.13;99427.81;5057070;28;20044;-62
2021/05/06 03:26:07;;;;;;;6.78;4.55;;;;;;;6.30;67.77;99424.91;5120588;27;20057;-62
2021/05/06 03:28:37;;;;;;;6.28;5.32;;;;;;;6.42;68.48;99427.13;5136038;27;20499;-62
2021/05/06 03:31:17;;;;;;;9.88;6.47;;;;;;;6.39;67.51;99420.28;5135692;27;20062;-62
2021/05/06 03:42:03;;;;;;;10.40;6.70;;;;;;;6.52;69.99;99413.03;5138440;27;20066;-62
2021/05/06 03:44:40;;;;;;;9.55;6.20;;;;;;;6.56;70.56;99413.25;5114966;28;20048;-64
2021/05/06 04:17:41;;;;;;;11.07;6.03;;;;;;;6.74;67.63;99411.41;5078762;28;20529;-62
2021/05/06 04:25:50;;;;;;;6.88;5.18;;;;;;;6.85;67.96;99413.63;5137317;27;20062;-62
2021/05/06 04:29:01;;;;;;;7.90;5.53;;;;;;;6.91;67.96;99417.91;5134672;27;20055;-62
2021/05/06 04:36:57;;;;;;;7.68;4.78;;;;;;;6.99;67.98;99423.78;5136113;27;20055;-62
2021/05/06 04:39:32;;;;;;;6.32;5.43;;;;;;;7.07;67.72;99420.25;5122180;27;20051;-62
2021/05/06 04:42:13;;;;;;;7.25;5.15;;;;;;;7.13;67.42;99424.53;5113762;28;20069;-62
2021/05/06 04:55:48;;;;;;;6.63;4.93;;;;;;;7.45;65.59;99430.88;5120759;27;20051;-62
2021/05/06 05:04:01;;;;;;;7.60;5.88;;;;;;;7.55;65.66;99427.00;5135106;27;20061;-62
2021/05/06 05:06:30;;;;;;;7.28;5.30;;;;;;;7.59;64.71;99426.03;5122211;27;20058;-62
2021/05/06 05:09:05;;;;;;;6.45;5.55;;;;;;;7.65;65.23;99433.09;5124942;27;20047;-61
2021/05/06 05:11:46;;;;;;;7.57;5.53;;;;;;;7.73;63.65;99435.06;5129122;27;20047;-62
2021/05/06 05:20:05;;;;;;;8.60;5.70;;;;;;;7.75;64.06;99429.22;5131573;27;20057;-63
2021/05/06 05:25:22;;;;;;;7.28;5.28;;;;;;;7.86;63.79;99429.72;5131481;27;20054;-63
2021/05/06 05:27:55;;;;;;;8.82;5.80;;;;;;;7.90;64.81;99436.25;5116077;27;20051;-63
2021/05/06 05:30:25;;;;;;;12.50;5.78;;;;;;;7.91;64.41;99437.88;5128821;27;20043;-63
2021/05/06 05:32:52;;;;;;;8.02;5.60;;;;;;;7.92;63.74;99434.78;5121660;27;20522;-62
2021/05/06 05:35:28;;;;;;;6.30;5.53;;;;;;;7.96;63.12;99443.28;5133185;27;20062;-62
2021/05/06 05:38:05;;;;;;;7.50;5.07;;;;;;;7.98;63.01;99443.78;5132810;27;20502;-63
2021/05/06 05:40:36;;;;;;;10.15;6.03;;;;;;;7.99;63.72;99437.09;5115267;28;20051;-63
2021/05/06 05:43:11;;;;;;;11.02;6.88;;;;;;;8.05;63.31;99441.34;5123686;28;20415;-62
2021/05/06 05:56:39;;;;;;;9.48;6.15;;;;;;;8.44;62.75;99436.88;5135642;27;20062;-63
2021/05/06 05:59:07;;;;;;;9.02;6.22;;;;;;;8.49;61.50;99433.13;5133432;28;20051;-63
2021/05/06 06:01:34;;;;;;;8.40;6.32;;;;;;;8.61;61.27;99432.44;5132508;28;20051;-63
2021/05/06 06:04:01;;;;;;;16.90;10.57;;;;;;;8.74;60.54;99428.72;5129973;27;20047;-62
2021/05/06 06:06:28;;;;;;;8.93;6.05;;;;;;;8.83;60.15;99434.25;5131434;27;20070;-62
2021/05/06 06:08:55;;;;;;;8.05;6.90;;;;;;;9.03;59.43;99418.84;5122029;27;20047;-63
2021/05/06 06:11:21;;;;;;;8.85;7.57;;;;;;;8.98;59.41;99430.13;5119304;27;20043;-63
2021/05/06 06:13:51;;;;;;;7.65;6.43;;;;;;;8.97;59.65;99422.97;5120838;27;20464;-63
2021/05/06 06:16:22;;;;;;;7.70;5.85;;;;;;;8.99;59.82;99427.03;5136943;27;20051;-63
2021/05/06 06:18:51;;;;;;;6.25;5.65;;;;;;;9.01;59.34;99432.25;5118844;27;20056;-63
2021/05/06 06:21:21;;;;;;;8.95;6.03;;;;;;;8.98;59.13;99430.13;5117128;27;20082;-63
2021/05/06 06:23:48;;;;;;;10.07;5.95;;;;;;;8.80;59.73;99435.72;5130728;27;20050;-63
2021/05/06 06:26:15;;;;;;;8.57;6.82;;;;;;;8.80;59.74;99438.50;5116779;28;20055;-63
2021/05/06 06:28:44;;;;;;;10.45;6.00;;;;;;;8.81;60.74;99434.56;5131855;27;20047;-63
2021/05/06 06:31:16;;;;;;;9.35;6.68;;;;;;;8.85;60.40;99437.50;5135379;27;20050;-63
2021/05/06 06:33:43;;;;;;;9.73;6.65;;;;;;;8.91;60.62;99437.00;5136351;27;20051;-63
2021/05/06 06:36:11;;;;;;;10.05;6.45;;;;;;;8.99;60.07;99438.16;5136885;27;20047;-63
2021/05/06 06:38:38;;;;;;;8.48;7.00;;;;;;;9.00;60.13;99452.84;5134847;27;20067;-63
2021/05/06 06:41:08;;;;;;;10.45;7.38;;;;;;;9.03;58.83;99454.94;5135427;27;20051;-63
2021/05/06 06:43:35;;;;;;;9.88;7.53;;;;;;;8.94;59.77;99447.47;5129103;27;20411;-63
2021/05/06 06:46:05;;;;;;;10.05;8.05;;;;;;;9.04;59.57;99445.50;5136926;27;20056;-63
2021/05/06 06:48:32;;;;;;;9.40;7.75;;;;;;;9.16;59.00;99453.97;5134935;27;20541;-67
2021/05/06 06:51:00;;;;;;;13.45;9.65;;;;;;;9.16;59.24;99453.16;5131237;27;20377;-63
2021/05/06 06:53:28;;;;;;;10.23;8.90;;;;;;;9.21;58.80;99447.41;5115902;28;20047;-63
2021/05/06 06:55:55;;;;;;;10.77;9.32;;;;;;;9.28;58.00;99456.88;5115962;28;20467;-63
2021/05/06 06:58:21;;;;;;;12.00;9.23;;;;;;;9.39;58.72;99456.53;5129570;27;20051;-63
2021/05/06 07:00:49;;;;;;;10.30;9.30;;;;;;;9.46;57.65;99448.50;5136258;27;20062;-63
2021/05/06 07:03:15;;;;;;;11.75;9.10;;;;;;;9.58;58.16;99454.19;5133931;27;20381;-63
2021/05/06 07:05:43;;;;;;;12.73;9.75;;;;;;;9.78;57.36;99451.78;5136327;27;20400;-63
2021/05/06 07:08:18;;;;;;;11.20;9.43;;;;;;;10.06;56.43;99449.38;5135926;27;20121;-62
2021/05/06 07:10:46;;;;;;;11.95;9.57;;;;;;;10.28;55.73;99445.47;5136741;27;20044;-63
2021/05/06 07:13:16;;;;;;;10.45;8.75;;;;;;;10.44;54.65;99446.53;5132092;27;20054;-62
2021/05/06 07:15:46;;;;;;;12.07;9.70;;;;;;;10.56;54.77;99443.81;5124081;27;20051;-62
2021/05/06 07:18:13;;;;;;;11.75;10.18;;;;;;;10.68;54.69;99450.59;5120417;27;20050;-62
2021/05/06 07:20:42;;;;;;;18.27;10.93;;;;;;;10.82;53.42;99456.72;5126414;27;20055;-61
2021/05/06 07:23:10;;;;;;;11.03;9.77;;;;;;;11.05;53.36;99445.19;5121954;27;20399;-62
2021/05/06 07:25:37;;;;;;;11.57;10.48;;;;;;;11.15;52.53;99444.78;5113817;27;20056;-63
2021/05/06 07:28:10;;;;;;;12.40;10.93;;;;;;;11.17;52.08;99450.78;5123373;27;20408;-63
2021/05/06 07:30:37;;;;;;;10.63;9.45;;;;;;;11.25;52.91;99449.09;5113436;28;20059;-63
2021/05/06 07:33:04;;;;;;;11.48;9.90;;;;;;;11.32;52.36;99447.38;5120905;27;20059;-62
2021/05/06 07:35:32;;;;;;;12.00;10.68;;;;;;;11.41;51.61;99443.69;5118613;27;20515;-61
2021/05/06 07:37:59;;;;;;;11.82;10.38;;;;;;;11.36;51.85;99445.53;5132228;27;20051;-62
2021/05/06 07:40:27;;;;;;;10.75;9.70;;;;;;;11.20;51.17;99452.91;5132514;27;20044;-62
2021/05/06 07:42:55;;;;;;;11.80;9.70;;;;;;;11.20;51.41;99458.47;5119191;27;20138;-62
2021/05/06 07:45:22;;;;;;;12.30;9.77;;;;;;;11.23;51.23;99454.19;5113392;28;20063;-62
2021/05/06 07:47:50;;;;;;;9.68;8.55;;;;;;;11.21;51.69;99462.06;5127807;27;20055;-62
2021/05/06 07:50:19;;;;;;;10.35;9.35;;;;;;;11.15;51.66;99453.13;5133006;27;20514;-62
2021/05/06 07:52:49;;;;;;;12.83;9.13;;;;;;;11.11;51.49;99452.19;5131616;27;20055;-62
2021/05/06 07:55:16;;;;;;;11.02;8.65;;;;;;;11.16;50.93;99446.38;5121601;27;20058;-61
2021/05/06 07:57:43;;;;;;;11.48;9.40;;;;;;;11.23;51.26;99449.41;5120367;27;20081;-61
2021/05/06 08:00:13;;;;;;;9.57;8.27;;;;;;;11.32;50.96;99454.94;5129457;27;20413;-62
2021/05/06 08:02:42;;;;;;;10.70;8.70;;;;;;;11.31;51.46;99451.31;5130851;27;20403;-62
2021/05/06 08:05:10;;;;;;;9.48;8.50;;;;;;;11.48;50.35;99452.28;5132214;27;20054;-62
2021/05/06 08:07:37;;;;;;;9.35;7.75;;;;;;;11.68;50.42;99445.81;5115780;27;20047;-62
2021/05/06 08:10:05;;;;;;;8.77;7.88;;;;;;;11.92;48.69;99435.84;5113365;28;20716;-62
2021/05/06 08:12:32;;;;;;;8.73;7.70;;;;;;;12.47;47.03;99450.31;5124753;27;20054;-61
2021/05/06 08:15:02;;;;;;;8.60;6.72;;;;;;;12.86;46.23;99440.31;5130818;27;20341;-61
2021/05/06 08:17:29;;;;;;;8.27;7.38;;;;;;;13.19;44.68;99448.44;5134856;27;20055;-62
2021/05/06 08:19:57;;;;;;;9.43;8.05;;;;;;;14.46;42.91;99441.22;5122333;27;20484;-62
2021/05/06 08:22:24;;;;;;;8.32;7.28;;;;;;;15.20;40.05;99441.19;5119302;27;20055;-62
2021/05/06 08:24:51;;;;;;;7.68;6.88;;;;;;;15.64;39.24;99437.97;5110817;28;20056;-62
2021/05/06 08:27:20;;;;;;;8.82;7.05;;;;;;;15.24;39.22;99436.44;5105059;28;20484;-62
2021/05/06 08:29:48;;;;;;;7.72;6.45;;;;;;;15.04;39.37;99434.88;5099528;28;20048;-60
2021/05/06 08:32:14;;;;;;;8.88;7.25;;;;;;;14.71;39.84;99439.78;5102425;28;20147;-60
2021/05/06 08:34:42;;;;;;;8.18;7.05;;;;;;;14.65;40.10;99440.47;5095211;28;20071;-59
2021/05/06 08:37:10;;;;;;;7.70;6.90;;;;;;;14.34;40.70;99445.78;5106750;28;20043;-60
2021/05/06 08:39:37;;;;;;;7.30;6.47;;;;;;;14.13;40.71;99446.09;5110265;28;20480;-60
2021/05/06 08:42:04;;;;;;;8.77;6.70;;;;;;;13.68;41.98;99449.34;5113650;28;20044;-60
2021/05/06 08:44:32;;;;;;;9.25;7.88;;;;;;;13.36;43.00;99450.13;5104012;28;20050;-60
2021/05/06 08:47:04;;;;;;;8.23;7.40;;;;;;;13.28;43.63;99459.47;5099118;28;20044;-61
2021/05/06 08:49:31;;;;;;;8.43;7.57;;;;;;;13.33;43.88;99459.25;5106466;28;20059;-60
2021/05/06 08:52:03;;;;;;;11.05;7.53;;;;;;;13.20;43.64;99455.66;5109843;28;20058;-60
2021/05/06 08:54:29;;;;;;;10.00;8.05;;;;;;;13.09;43.74;99462.13;5105538;28;20906;-60
2021/05/06 08:56:57;;;;;;;9.13;7.63;;;;;;;13.20;43.21;99471.63;5093905;28;20063;-60
2021/05/06 08:59:25;;;;;;;9.27;7.65;;;;;;;13.84;41.72;99455.78;5095173;28;20159;-60
2021/05/06 09:01:52;;;;;;;9.50;7.28;;;;;;;14.59;40.03;99451.13;5104904;28;20048;-60
2021/05/06 09:04:19;;;;;;;7.68;6.88;;;;;;;14.66;40.62;99450.47;5096347;28;20048;-60
2021/05/06 09:06:54;;;;;;;8.43;6.68;;;;;;;15.49;38.00;99452.97;5108731;28;20047;-61
2021/05/06 09:09:22;;;;;;;8.63;7.25;;;;;;;17.22;34.30;99452.41;5111743;28;20051;-61
2021/05/06 09:11:53;;;;;;;6.05;5.43;;;;;;;19.87;29.76;99436.31;5104753;28;20044;-61
2021/05/06 09:14:34;;;;;;;7.13;6.15;;;;;;;20.00;29.68;99430.28;5097303;28;20442;-61
2021/05/06 09:17:02;;;;;;;6.05;5.45;;;;;;;19.56;29.69;99426.56;5093498;28;20051;-61
2021/05/06 09:19:28;;;;;;;5.78;5.18;;;;;;;19.43;29.29;99431.81;5110401;28;20055;-61
2021/05/06 09:21:56;;;;;;;6.25;5.57;;;;;;;19.03;29.91;99422.41;5134487;27;20062;-61
2021/05/06 09:24:26;;;;;;;6.18;5.30;;;;;;;18.44;30.86;99416.88;5131636;27;20051;-61
2021/05/06 09:26:56;;;;;;;;;;;;;;;17.79;31.32;99426.81;5134347;27;20047;-61
2021/05/06 09:29:31;;;;;;;6.88;5.10;;;;;;;17.44;32.69;99419.66;5129926;27;19919;-61
2021/05/06 09:32:14;;;;;;;6.57;5.03;;;;;;;19.47;29.77;99398.72;5134117;27;20050;-61
2021/05/06 09:34:42;;;;;;;7.55;4.93;;;;;;;20.70;28.19;99398.66;5133326;27;20058;-61
2021/05/06 09:37:21;;;;;;;5.35;4.85;;;;;;;22.76;24.23;99408.06;5122277;27;20054;-61
2021/05/06 09:39:57;;;;;;;7.53;4.68;;;;;;;23.42;23.06;99399.09;5127314;27;20055;-61
2021/05/06 09:42:36;;;;;;;4.93;4.32;;;;;;;24.83;22.54;99394.66;5129686;27;20051;-61
2021/05/06 09:45:04;;;;;;;5.05;4.47;;;;;;;25.24;21.37;99394.22;5126275;28;20050;-61
2021/05/06 09:47:33;;;;;;;5.40;4.35;;;;;;;24.91;22.39;99396.91;5131244;28;20349;-62
2021/05/06 09:50:00;;;;;;;6.65;5.72;;;;;;;28.18;18.61;99399.50;5130331;28;20054;-62
2021/05/06 09:52:27;;;;;;;5.88;5.38;;;;;;;30.57;16.65;99393.47;5133622;28;20055;-62
2021/05/06 09:54:56;;;;;;;5.95;5.45;;;;;;;31.07;15.94;99387.53;5128295;28;20054;-60
2021/05/06 09:57:27;;;;;;;5.28;4.78;;;;;;;33.02;14.18;99388.81;5133107;28;20506;-62
2021/05/06 10:00:17;;;;;;;5.32;4.82;;;;;;;34.23;12.15;99389.00;5131767;28;20468;-62
2021/05/06 10:02:46;;;;;;;5.53;4.63;;;;;;;35.11;11.85;99392.66;5133711;28;20372;-62
2021/05/06 10:05:16;;;;;;;4.38;3.60;;;;;;;36.37;10.95;99385.19;5131805;28;20055;-62
2021/05/06 10:07:52;;;;;;;4.20;3.80;;;;;;;35.49;10.02;99375.34;5112658;28;20055;-62
2021/05/06 10:10:23;;;;;;;4.50;3.65;;;;;;;35.76;10.25;99382.69;5124964;28;20051;-62
2021/05/06 10:12:50;;;;;;;3.63;2.85;;;;;;;33.97;10.36;99383.06;5093305;28;20074;-62
2021/05/06 10:15:18;;;;;;;3.83;3.17;;;;;;;32.65;10.97;99376.84;5131899;28;20058;-62
2021/05/06 10:17:47;;;;;;;3.77;3.10;;;;;;;33.69;9.92;99379.78;5133491;28;20047;-62
2021/05/06 10:20:14;;;;;;;3.10;2.80;;;;;;;32.15;11.06;99377.38;5125964;28;20487;-61
2021/05/06 10:22:43;;;;;;;4.00;2.97;;;;;;;32.35;10.88;99377.53;5127064;28;20062;-61
2021/05/06 10:25:11;;;;;;;3.88;3.28;;;;;;;32.33;10.71;99365.69;5128889;28;20047;-60
2021/05/06 10:27:40;;;;;;;3.70;2.88;;;;;;;30.60;12.45;99366.66;5120369;28;20051;-61
2021/05/06 10:30:08;;;;;;;3.63;2.47;;;;;;;29.21;14.36;99365.47;5125802;28;20050;-61
2021/05/06 10:32:35;;;;;;;3.30;2.67;;;;;;;27.81;14.79;99376.16;5131944;28;20074;-61
2021/05/06 10:35:04;;;;;;;3.00;2.60;;;;;;;25.87;16.46;99376.03;5127764;28;20361;-62
2021/05/06 10:37:33;;;;;;;5.35;3.15;;;;;;;24.45;17.93;99372.19;5128755;28;20047;-62
2021/05/06 10:40:01;;;;;;;4.28;3.17;;;;;;;23.59;19.53;99363.09;5113814;28;20376;-62
2021/05/06 10:42:35;;;;;;;3.42;2.97;;;;;;;22.98;20.78;99361.13;5126852;28;20400;-62
2021/05/06 10:45:30;;;;;;;4.50;3.13;;;;;;;22.41;21.24;99364.69;5117430;28;20043;-62
2021/05/06 10:47:57;;;;;;;4.68;3.13;;;;;;;22.02;21.44;99369.50;5128955;27;20058;-62
2021/05/06 10:50:26;;;;;;;3.42;3.13;;;;;;;23.18;20.71;99360.47;5132619;27;20062;-63
2021/05/06 10:52:57;;;;;;;2.78;2.47;;;;;;;23.44;20.88;99348.31;5135458;27;20491;-62
2021/05/06 10:55:47;;;;;;;4.20;3.53;;;;;;;25.87;17.39;99347.50;5123448;27;20052;-63
2021/05/06 10:58:33;;;;;;;4.22;3.50;;;;;;;28.87;15.37;99338.50;5122769;27;20066;-63
2021/05/06 11:01:41;;;;;;;2.92;2.63;;;;;;;30.19;12.59;99328.59;5123119;27;20050;-64
2021/05/06 11:04:10;;;;;;;3.40;3.10;;;;;;;30.93;12.97;99325.72;5120548;27;20047;-64
2021/05/06 11:06:42;;;;;;;3.40;2.88;;;;;;;32.74;10.78;99319.09;5131815;27;20050;-64
2021/05/06 11:09:57;;;;;;;2.97;2.53;;;;;;;33.69;10.14;99337.25;5134111;27;20047;-64
2021/05/06 11:12:32;;;;;;;3.95;2.28;;;;;;;33.65;8.92;99309.88;5123352;27;20054;-64
2021/05/06 11:15:31;;;;;;;3.95;2.47;;;;;;;33.70;10.38;99326.47;5134555;27;20058;-64
2021/05/06 11:18:03;;;;;;;;;;;;;;;33.04;9.79;99324.84;5131750;27;20108;-64
2021/05/06 11:20:50;;;;;;;3.10;2.20;;;;;;;32.93;10.24;99319.69;5131900;27;19919;-64
2021/05/06 11:23:37;;;;;;;3.37;2.07;;;;;;;32.66;9.90;99315.00;5127759;27;20043;-64
2021/05/06 11:26:15;;;;;;;3.10;2.28;;;;;;;30.89;11.18;99313.59;5113346;28;20048;-64
2021/05/06 11:28:51;;;;;;;4.35;1.90;;;;;;;29.65;11.65;99310.81;5124684;27;20047;-64
2021/05/06 11:31:48;;;;;;;4.32;2.03;;;;;;;28.42;12.89;99318.88;5133958;27;20051;-64
2021/05/06 11:34:36;;;;;;;3.47;1.80;;;;;;;26.49;14.65;99307.47;5135201;27;20047;-64
2021/05/06 11:37:14;;;;;;;3.77;1.57;;;;;;;25.28;14.38;99297.22;5132869;27;20404;-64
2021/05/06 11:39:55;;;;;;;2.85;1.50;;;;;;;24.05;15.98;99292.47;5133945;27;20712;-63
2021/05/06 11:42:22;;;;;;;3.83;1.60;;;;;;;23.42;15.82;99288.25;5134852;27;20063;-63
2021/05/06 11:45:23;;;;;;;3.42;1.67;;;;;;;23.23;16.31;99291.84;5131093;27;20054;-64
2021/05/06 11:47:52;;;;;;;1.92;1.60;;;;;;;22.83;16.98;99288.75;5122281;27;20043;-64
2021/05/06 11:50:28;;;;;;;3.33;1.65;;;;;;;22.18;17.19;99281.00;5131594;27;20043;-64
2021/05/06 11:52:56;;;;;;;2.55;1.73;;;;;;;21.75;18.30;99278.63;5134910;27;20507;-64
2021/05/06 11:55:28;;;;;;;2.90;1.80;;;;;;;21.42;19.19;99278.13;5125119;27;20054;-64
2021/05/06 11:57:55;;;;;;;3.67;1.80;;;;;;;21.77;19.34;99279.00;5134756;27;20054;-64
2021/05/06 12:00:25;;;;;;;3.03;2.13;;;;;;;22.89;17.64;99273.63;5126919;27;20047;-64
2021/05/06 12:02:58;;;;;;;4.75;2.10;;;;;;;24.99;16.46;99263.69;5128514;27;20066;-64
2021/05/06 12:05:52;;;;;;;2.92;2.20;;;;;;;27.02;14.72;99258.56;5126299;27;20047;-63
2021/05/06 12:08:20;;;;;;;4.03;1.88;;;;;;;28.42;13.97;99253.78;5134072;27;20406;-64
2021/05/06 12:10:47;;;;;;;2.30;1.70;;;;;;;28.41;12.35;99252.19;5133986;27;20051;-64
2021/05/06 12:13:16;;;;;;;2.83;1.88;;;;;;;26.59;14.70;99254.19;5133656;27;20058;-63
2021/05/06 12:15:43;;;;;;;2.60;1.50;;;;;;;25.25;15.08;99252.50;5133792;27;20406;-63
2021/05/06 12:18:18;;;;;;;2.58;1.83;;;;;;;24.84;15.59;99248.97;5132509;27;20399;-64
2021/05/06 12:20:54;;;;;;;2.25;1.50;;;;;;;23.85;16.66;99246.94;5130679;27;20046;-62
2021/05/06 12:23:21;;;;;;;2.92;1.85;;;;;;;22.79;18.01;99254.72;5114790;27;20060;-64
2021/05/06 12:25:49;;;;;;;3.60;1.88;;;;;;;21.99;18.83;99245.59;5133049;27;20051;-64
2021/05/06 12:28:16;;;;;;;6.28;2.30;;;;;;;20.86;20.35;99257.47;5132134;27;20051;-64
2021/05/06 12:30:43;;;;;;;3.65;1.80;;;;;;;20.17;21.13;99251.31;5134350;27;20051;-64
2021/05/06 12:33:10;;;;;;;4.78;1.83;;;;;;;19.65;22.13;99256.69;5132022;27;20061;-64
2021/05/06 12:35:50;;;;;;;2.47;1.77;;;;;;;19.04;22.71;99249.03;5133895;27;20058;-65
2021/05/06 12:38:18;;;;;;;3.30;1.70;;;;;;;18.52;23.75;99242.88;5118718;27;20051;-63
2021/05/06 12:40:46;;;;;;;2.85;1.80;;;;;;;18.48;23.96;99242.06;5121900;27;20058;-62
2021/05/06 12:43:27;;;;;;;3.08;1.92;;;;;;;18.94;23.51;99243.38;5132345;27;20054;-63
2021/05/06 12:46:01;;;;;;;2.50;1.60;;;;;;;18.95;22.41;99250.66;5113470;28;20055;-63
2021/05/06 12:48:45;;;;;;;3.15;1.35;;;;;;;18.19;22.59;99232.69;5114697;27;20051;-63
2021/05/06 12:51:14;;;;;;;4.50;1.90;;;;;;;18.32;22.66;99248.03;5121063;27;20052;-62
2021/05/06 12:54:09;;;;;;;3.85;1.83;;;;;;;18.34;22.73;99228.72;5113713;27;20051;-63
2021/05/06 12:56:39;;;;;;;2.70;1.70;;;;;;;18.71;22.69;99229.59;5113615;28;20396;-63
2021/05/06 12:59:27;;;;;;;3.45;1.90;;;;;;;19.01;22.77;99218.00;5128527;27;20051;-63
2021/05/06 13:02:08;;;;;;;2.63;1.92;;;;;;;19.62;22.01;99212.31;5133721;27;20399;-63
2021/05/06 13:04:43;;;;;;;4.60;1.70;;;;;;;20.48;21.41;99209.97;5129074;27;20058;-64
2021/05/06 13:07:10;;;;;;;4.50;2.00;;;;;;;20.79;20.46;99215.88;5117638;27;20043;-63
2021/05/06 13:09:48;;;;;;;3.65;2.33;;;;;;;21.16;19.87;99213.56;5133119;27;20047;-64
2021/05/06 13:12:17;;;;;;;3.08;1.80;;;;;;;21.55;19.47;99198.28;5130359;27;20050;-63
2021/05/06 13:14:46;;;;;;;2.45;1.77;;;;;;;21.93;21.01;99195.44;5108572;22;20049;-62
2021/05/06 13:17:28;;;;;;;3.03;1.63;;;;;;;22.20;19.70;99196.31;5051271;28;20041;-63
2021/05/06 13:19:57;;;;;;;2.05;1.73;;;;;;;22.21;18.96;99192.22;5053477;28;20053;-63
2021/05/06 13:22:25;;;;;;;3.08;1.80;;;;;;;22.41;19.55;99188.78;5055074;28;20052;-63
2021/05/06 13:24:53;;;;;;;2.88;1.80;;;;;;;22.12;18.46;99183.44;5051408;28;20055;-64
2021/05/06 13:27:22;;;;;;;3.35;1.85;;;;;;;21.83;19.09;99165.97;5047046;28;20053;-64
2021/05/06 13:29:59;;;;;;;4.65;1.92;;;;;;;21.61;19.30;99177.56;5050043;28;20056;-63
2021/05/06 13:32:36;;;;;;;2.78;1.80;;;;;;;21.26;19.22;99167.38;5050634;28;20060;-63
2021/05/06 13:35:04;;;;;;;2.15;1.50;;;;;;;20.73;19.40;99177.13;5049581;28;20057;-64
2021/05/06 13:37:38;;;;;;;3.83;1.55;;;;;;;20.30;20.47;99175.31;5049876;28;20152;-62
2021/05/06 13:40:07;;;;;;;2.58;1.60;;;;;;;19.87;21.32;99170.69;5051743;28;20049;-63
2021/05/06 13:42:34;;;;;;;4.32;2.20;;;;;;;19.52;22.08;99165.09;5049127;28;20147;-64
2021/05/06 13:45:02;;;;;;;3.30;1.90;;;;;;;19.29;22.20;99165.56;5089175;22;20044;-64
2021/05/06 13:47:29;;;;;;;2.55;1.92;;;;;;;19.30;22.50;99153.03;5072756;28;20048;-62
2021/05/06 13:49:56;;;;;;;2.80;1.85;;;;;;;18.85;22.89;99145.03;5081025;28;20079;-63
2021/05/06 13:52:26;;;;;;;3.00;2.00;;;;;;;18.75;22.71;99145.78;5085490;28;20048;-63
2021/05/06 13:54:54;;;;;;;2.85;1.70;;;;;;;18.48;23.75;99140.56;5089573;28;20063;-63
2021/05/06 13:57:21;;;;;;;3.95;2.28;;;;;;;18.21;23.87;99134.47;5090120;28;20513;-64
2021/05/06 13:59:48;;;;;;;4.20;2.88;;;;;;;18.07;25.25;99132.41;5089440;28;20420;-63
2021/05/06 14:02:18;;;;;;;3.10;1.98;;;;;;;18.00;25.13;99130.38;5090646;28;20051;-63
2021/05/06 14:04:46;;;;;;;2.97;2.30;;;;;;;17.93;25.01;99135.16;5090179;28;20412;-63
2021/05/06 14:07:13;;;;;;;2.88;1.77;;;;;;;17.96;25.00;99134.38;5088360;28;20086;-63
2021/05/06 14:09:40;;;;;;;2.28;1.75;;;;;;;18.04;24.90;99130.38;5070246;28;20067;-64
2021/05/06 14:12:08;;;;;;;2.67;1.80;;;;;;;18.25;24.65;99130.44;5080066;28;20059;-64
2021/05/06 14:14:36;;;;;;;3.58;1.80;;;;;;;18.53;24.40;99131.69;5085585;28;20047;-64
2021/05/06 14:17:03;;;;;;;2.97;1.90;;;;;;;18.81;25.50;99116.00;5092983;28;20052;-63
2021/05/06 14:19:30;;;;;;;3.22;1.85;;;;;;;19.05;24.20;99115.19;5092336;28;20067;-62
2021/05/06 14:21:57;;;;;;;2.45;1.75;;;;;;;19.26;23.65;99108.69;5092859;28;20059;-63
2021/05/06 14:24:24;;;;;;;3.15;2.15;;;;;;;19.24;23.78;99113.16;5092454;28;20416;-63
2021/05/06 14:26:51;;;;;;;2.90;1.70;;;;;;;19.39;23.08;99113.91;5094746;28;20141;-63
2021/05/06 14:29:19;;;;;;;2.40;1.98;;;;;;;19.41;22.79;99103.81;5095863;28;20047;-64
2021/05/06 14:32:05;;;;;;;3.75;1.90;;;;;;;18.83;23.35;99099.47;5095862;28;20055;-63